sensor_id;sensor_type;location;lat;lon;timestamp;pressure;altitude;pressure_sealevel;temperature;humidity
65276;BME280;51875;49.994;14.052;2022-12-16T00:00:37;97445.81;;;-3.50;100.00
65276;BME280;51875;49.994;14.052;2022-12-16T00:02:09;97443.34;;;-3.42;100.00
65276;BME280;51875;49.994;14.052;2022-12-16T00:03:25;97437.31;;;-3.47;100.00
65276;BME280;51875;49.994;14.052;2022-12-16T00:04:40;97429.69;;;-3.41;100.00
65276;BME280;51875;49.994;14.052;2022-12-16T00:05:56;97427.91;;;-3.47;100.00
65276;BME280;51875;49.994;14.052;2022-12-16T00:07:12;97428.97;;;-3.29;100.00
65276;BME280;51875;49.994;14.052;2022-12-16T00:08:27;97420.53;;;-3.19;100.00
65276;BME280;51875;49.994;14.052;2022-12-16T00:09:43;97416.34;;;-3.12;100.00
65276;BME280;51875;49.994;14.052;2022-12-16T00:11:00;97412.03;;;-3.19;100.00
65276;BME280;51875;49.994;14.052;2022-12-16T00:12:15;97410.19;;;-3.30;100.00
65276;BME280;51875;49.994;14.052;2022-12-16T00:13:32;97407.72;;;-3.22;100.00
65276;BME280;51875;49.994;14.052;2022-12-16T00:14:48;97412.84;;;-3.19;100.00
65276;BME280;51875;49.994;14.052;2022-12-16T00:16:12;97410.34;;;-3.14;100.00
65276;BME280;51875;49.994;14.052;2022-12-16T00:17:28;97418.38;;;-3.62;100.00
65276;BME280;51875;49.994;14.052;2022-12-16T00:18:45;97419.91;;;-3.76;100.00
65276;BME280;51875;49.994;14.052;2022-12-16T00:20:02;97413.44;;;-3.45;100.00
65276;BME280;51875;49.994;14.052;2022-12-16T00:21:18;97419.47;;;-3.41;100.00
65276;BME280;51875;49.994;14.052;2022-12-16T00:22:34;97424.03;;;-3.88;100.00
65276;BME280;51875;49.994;14.052;2022-12-16T00:23:50;97424.19;;;-3.75;100.00
65276;BME280;51875;49.994;14.052;2022-12-16T00:25:06;97415.94;;;-3.49;100.00
65276;BME280;51875;49.994;14.052;2022-12-16T00:26:22;97405.03;;;-3.34;100.00
65276;BME280;51875;49.994;14.052;2022-12-16T00:27:37;97395.66;;;-3.34;100.00
65276;BME280;51875;49.994;14.052;2022-12-16T00:28:53;97397.28;;;-3.39;100.00
65276;BME280;51875;49.994;14.052;2022-12-16T00:30:09;97395.00;;;-3.13;100.00
65276;BME280;51875;49.994;14.052;2022-12-16T00:31:25;97396.72;;;-3.10;100.00
65276;BME280;51875;49.994;14.052;2022-12-16T00:32:41;97396.56;;;-3.29;100.00
65276;BME280;51875;49.994;14.052;2022-12-16T00:33:57;97392.31;;;-3.27;100.00
65276;BME280;51875;49.994;14.052;2022-12-16T00:35:13;97384.09;;;-2.91;100.00
65276;BME280;51875;49.994;14.052;2022-12-16T00:36:29;97375.47;;;-3.03;100.00
65276;BME280;51875;49.994;14.052;2022-12-16T00:37:46;97371.94;;;-3.14;100.00
65276;BME280;51875;49.994;14.052;2022-12-16T00:39:02;97377.69;;;-3.37;100.00
65276;BME280;51875;49.994;14.052;2022-12-16T00:40:17;97372.66;;;-3.29;100.00
65276;BME280;51875;49.994;14.052;2022-12-16T00:41:34;97374.09;;;-3.55;100.00
65276;BME280;51875;49.994;14.052;2022-12-16T00:42:49;97370.78;;;-3.46;100.00
65276;BME280;51875;49.994;14.052;2022-12-16T00:44:05;97372.22;;;-3.71;100.00
65276;BME280;51875;49.994;14.052;2022-12-16T00:45:20;97365.81;;;-4.07;100.00
65276;BME280;51875;49.994;14.052;2022-12-16T00:46:36;97371.13;;;-3.93;100.00
65276;BME280;51875;49.994;14.052;2022-12-16T00:47:52;97368.56;;;-3.92;100.00
65276;BME280;51875;49.994;14.052;2022-12-16T00:49:08;97362.81;;;-3.75;100.00
65276;BME280;51875;49.994;14.052;2022-12-16T00:50:24;97361.63;;;-4.02;100.00
65276;BME280;51875;49.994;14.052;2022-12-16T00:51:39;97364.06;;;-4.12;100.00
65276;BME280;51875;49.994;14.052;2022-12-16T00:52:55;97352.97;;;-4.12;100.00
65276;BME280;51875;49.994;14.052;2022-12-16T00:54:11;97353.16;;;-3.98;100.00
65276;BME280;51875;49.994;14.052;2022-12-16T00:55:27;97351.03;;;-3.61;100.00
65276;BME280;51875;49.994;14.052;2022-12-16T00:56:42;97355.00;;;-3.88;100.00
65276;BME280;51875;49.994;14.052;2022-12-16T00:57:58;97360.00;;;-3.94;100.00
65276;BME280;51875;49.994;14.052;2022-12-16T00:59:14;97356.91;;;-3.68;100.00
65276;BME280;51875;49.994;14.052;2022-12-16T01:00:29;97369.63;;;-3.74;100.00
65276;BME280;51875;49.994;14.052;2022-12-16T01:01:45;97359.69;;;-3.45;100.00
65276;BME280;51875;49.994;14.052;2022-12-16T01:03:01;97355.97;;;-3.76;100.00
65276;BME280;51875;49.994;14.052;2022-12-16T01:04:16;97355.22;;;-3.67;100.00
65276;BME280;51875;49.994;14.052;2022-12-16T01:05:32;97356.00;;;-3.72;100.00
65276;BME280;51875;49.994;14.052;2022-12-16T01:06:48;97353.50;;;-3.67;100.00
65276;BME280;51875;49.994;14.052;2022-12-16T01:08:03;97353.44;;;-3.73;100.00
65276;BME280;51875;49.994;14.052;2022-12-16T01:09:19;97351.97;;;-3.49;100.00
65276;BME280;51875;49.994;14.052;2022-12-16T01:10:35;97355.22;;;-3.66;100.00
65276;BME280;51875;49.994;14.052;2022-12-16T01:11:51;97352.72;;;-3.63;100.00
65276;BME280;51875;49.994;14.052;2022-12-16T01:13:06;97351.94;;;-3.54;100.00
65276;BME280;51875;49.994;14.052;2022-12-16T01:14:22;97348.63;;;-3.44;100.00
65276;BME280;51875;49.994;14.052;2022-12-16T01:15:38;97360.00;;;-3.94;100.00
65276;BME280;51875;49.994;14.052;2022-12-16T01:16:53;97356.59;;;-3.96;100.00
65276;BME280;51875;49.994;14.052;2022-12-16T01:18:08;97356.91;;;-3.68;100.00
65276;BME280;51875;49.994;14.052;2022-12-16T01:19:25;97350.09;;;-3.66;100.00
65276;BME280;51875;49.994;14.052;2022-12-16T01:20:41;97352.47;;;-3.85;100.00
65276;BME280;51875;49.994;14.052;2022-12-16T01:21:56;97350.00;;;-3.74;100.00
65276;BME280;51875;49.994;14.052;2022-12-16T01:23:12;97350.97;;;-3.64;100.00
65276;BME280;51875;49.994;14.052;2022-12-16T01:24:27;97349.31;;;-3.60;100.00
65276;BME280;51875;49.994;14.052;2022-12-16T01:25:43;97355.47;;;-3.41;100.00
65276;BME280;51875;49.994;14.052;2022-12-16T01:26:58;97354.72;;;-3.34;100.00
65276;BME280;51875;49.994;14.052;2022-12-16T01:28:14;97347.44;;;-3.77;100.00
65276;BME280;51875;49.994;14.052;2022-12-16T01:29:30;97344.84;;;-3.80;100.00
65276;BME280;51875;49.994;14.052;2022-12-16T01:30:45;97340.50;;;-3.89;100.00
65276;BME280;51875;49.994;14.052;2022-12-16T01:32:01;97336.34;;;-3.76;100.00
65276;BME280;51875;49.994;14.052;2022-12-16T01:33:16;97342.34;;;-3.75;100.00
65276;BME280;51875;49.994;14.052;2022-12-16T01:34:32;97340.78;;;-3.61;100.00
65276;BME280;51875;49.994;14.052;2022-12-16T01:35:48;97329.91;;;-3.38;100.00
65276;BME280;51875;49.994;14.052;2022-12-16T01:37:03;97338.53;;;-3.30;100.00
65276;BME280;51875;49.994;14.052;2022-12-16T01:38:19;97340.75;;;-3.65;100.00
65276;BME280;51875;49.994;14.052;2022-12-16T01:39:34;97344.25;;;-3.56;100.00
65276;BME280;51875;49.994;14.052;2022-12-16T01:40:50;97349.16;;;-3.76;100.00
65276;BME280;51875;49.994;14.052;2022-12-16T01:42:14;97347.72;;;-3.49;100.00
65276;BME280;51875;49.994;14.052;2022-12-16T01:43:33;97343.69;;;-3.28;100.00
65276;BME280;51875;49.994;14.052;2022-12-16T01:44:50;97338.69;;;-3.13;100.00
65276;BME280;51875;49.994;14.052;2022-12-16T01:46:14;97336.94;;;-3.15;100.00
65276;BME280;51875;49.994;14.052;2022-12-16T01:47:31;97333.44;;;-3.28;100.00
65276;BME280;51875;49.994;14.052;2022-12-16T01:48:59;97335.16;;;-3.24;100.00
65276;BME280;51875;49.994;14.052;2022-12-16T01:50:16;97331.81;;;-3.15;100.00
65276;BME280;51875;49.994;14.052;2022-12-16T01:51:35;97324.97;;;-3.19;100.00
65276;BME280;51875;49.994;14.052;2022-12-16T01:52:55;97323.16;;;-3.30;100.00
65276;BME280;51875;49.994;14.052;2022-12-16T01:54:18;97319.94;;;-3.08;100.00
65276;BME280;51875;49.994;14.052;2022-12-16T01:55:42;97327.66;;;-3.07;100.00
65276;BME280;51875;49.994;14.052;2022-12-16T01:57:05;97330.19;;;-3.07;100.00
65276;BME280;51875;49.994;14.052;2022-12-16T01:58:28;97334.25;;;-3.31;100.00
65276;BME280;51875;49.994;14.052;2022-12-16T01:59:46;97327.56;;;-3.16;100.00
65276;BME280;51875;49.994;14.052;2022-12-16T02:01:03;97322.53;;;-3.04;100.00
65276;BME280;51875;49.994;14.052;2022-12-16T02:02:20;97329.38;;;-3.03;100.00
65276;BME280;51875;49.994;14.052;2022-12-16T02:03:36;97326.00;;;-2.95;100.00
65276;BME280;51875;49.994;14.052;2022-12-16T02:04:53;97318.47;;;-2.77;100.00
65276;BME280;51875;49.994;14.052;2022-12-16T02:06:29;97315.75;;;-2.99;100.00
65276;BME280;51875;49.994;14.052;2022-12-16T02:09:19;97321.25;;;-3.49;100.00
65276;BME280;51875;49.994;14.052;2022-12-16T02:14:18;97324.38;;;-2.86;100.00
65276;BME280;51875;49.994;14.052;2022-12-16T02:15:41;97324.34;;;-2.90;100.00
65276;BME280;51875;49.994;14.052;2022-12-16T02:17:13;97327.00;;;-2.76;100.00
65276;BME280;51875;49.994;14.052;2022-12-16T02:18:37;97321.00;;;-2.80;100.00
65276;BME280;51875;49.994;14.052;2022-12-16T02:20:11;97331.13;;;-2.95;100.00
65276;BME280;51875;49.994;14.052;2022-12-16T02:24:51;97331.28;;;-2.75;100.00
65276;BME280;51875;49.994;14.052;2022-12-16T02:29:33;97333.44;;;-3.27;100.00
65276;BME280;51875;49.994;14.052;2022-12-16T02:32:15;97339.69;;;-2.95;100.00
65276;BME280;51875;49.994;14.052;2022-12-16T02:35:09;97334.28;;;-3.24;100.00
65276;BME280;51875;49.994;14.052;2022-12-16T02:37:48;97336.97;;;-3.12;100.00
65276;BME280;51875;49.994;14.052;2022-12-16T02:39:21;97338.75;;;-3.03;100.00
65276;BME280;51875;49.994;14.052;2022-12-16T02:40:48;97335.41;;;-2.96;100.00
65276;BME280;51875;49.994;14.052;2022-12-16T02:42:28;97329.38;;;-3.03;100.00
65276;BME280;51875;49.994;14.052;2022-12-16T02:45:15;97325.34;;;-2.71;100.00
65276;BME280;51875;49.994;14.052;2022-12-16T02:46:42;97328.53;;;-3.02;100.00
65276;BME280;51875;49.994;14.052;2022-12-16T02:47:57;97318.25;;;-3.06;100.00
65276;BME280;51875;49.994;14.052;2022-12-16T02:50:50;97326.88;;;-2.93;100.00
65276;BME280;51875;49.994;14.052;2022-12-16T02:52:06;97320.94;;;-2.88;100.00
65276;BME280;51875;49.994;14.052;2022-12-16T02:53:22;97326.19;;;-2.71;100.00
65276;BME280;51875;49.994;14.052;2022-12-16T02:54:38;97322.69;;;-2.82;100.00
65276;BME280;51875;49.994;14.052;2022-12-16T02:57:40;97319.53;;;-2.44;100.00
65276;BME280;51875;49.994;14.052;2022-12-16T03:00:59;97325.28;;;-2.79;100.00
65276;BME280;51875;49.994;14.052;2022-12-16T03:05:14;97326.06;;;-2.88;100.00
65276;BME280;51875;49.994;14.052;2022-12-16T03:06:34;97327.78;;;-2.87;100.00
65276;BME280;51875;49.994;14.052;2022-12-16T03:07:52;97328.59;;;-2.94;100.00
65276;BME280;51875;49.994;14.052;2022-12-16T03:09:12;97327.69;;;-2.98;100.00
65276;BME280;51875;49.994;14.052;2022-12-16T03:10:33;97338.44;;;-3.39;100.00
65276;BME280;51875;49.994;14.052;2022-12-16T03:11:51;97336.13;;;-3.08;100.00
65276;BME280;51875;49.994;14.052;2022-12-16T03:13:09;97335.44;;;-2.87;100.00
65276;BME280;51875;49.994;14.052;2022-12-16T03:14:28;97337.28;;;-2.72;100.00
65276;BME280;51875;49.994;14.052;2022-12-16T03:15:47;97337.50;;;-2.39;100.00
65276;BME280;51875;49.994;14.052;2022-12-16T03:17:05;97339.06;;;-2.60;100.00
65276;BME280;51875;49.994;14.052;2022-12-16T03:18:22;97341.78;;;-2.36;100.00
65276;BME280;51875;49.994;14.052;2022-12-16T03:19:40;97345.13;;;-2.45;100.00
65276;BME280;51875;49.994;14.052;2022-12-16T03:21:01;97331.50;;;-2.38;100.00
65276;BME280;51875;49.994;14.052;2022-12-16T03:22:20;97335.72;;;-2.49;100.00
65276;BME280;51875;49.994;14.052;2022-12-16T03:23:51;97325.41;;;-2.63;100.00
65276;BME280;51875;49.994;14.052;2022-12-16T03:25:09;97335.72;;;-2.51;100.00
65276;BME280;51875;49.994;14.052;2022-12-16T03:26:36;97336.50;;;-2.61;100.00
65276;BME280;51875;49.994;14.052;2022-12-16T03:29:26;97345.94;;;-2.56;100.00
65276;BME280;51875;49.994;14.052;2022-12-16T03:30:50;97343.94;;;-2.94;100.00
65276;BME280;51875;49.994;14.052;2022-12-16T03:33:58;97344.22;;;-2.52;100.00
65276;BME280;51875;49.994;14.052;2022-12-16T03:35:23;97350.25;;;-2.50;100.00
65276;BME280;51875;49.994;14.052;2022-12-16T03:36:40;97353.59;;;-2.57;100.00
65276;BME280;51875;49.994;14.052;2022-12-16T03:37:59;97339.25;;;-2.30;100.00
65276;BME280;51875;49.994;14.052;2022-12-16T03:39:18;97336.59;;;-2.43;100.00
65276;BME280;51875;49.994;14.052;2022-12-16T03:40:36;97340.91;;;-2.38;100.00
65276;BME280;51875;49.994;14.052;2022-12-16T03:41:53;97340.88;;;-2.48;100.00
65276;BME280;51875;49.994;14.052;2022-12-16T03:43:11;97336.59;;;-2.49;100.00
65276;BME280;51875;49.994;14.052;2022-12-16T03:44:29;97340.81;;;-2.56;100.00
65276;BME280;51875;49.994;14.052;2022-12-16T03:45:45;97338.34;;;-2.38;100.00
65276;BME280;51875;49.994;14.052;2022-12-16T03:47:06;97342.69;;;-2.30;100.00
65276;BME280;51875;49.994;14.052;2022-12-16T03:48:24;97339.06;;;-2.64;100.00
65276;BME280;51875;49.994;14.052;2022-12-16T03:49:40;97335.56;;;-2.73;100.00
65276;BME280;51875;49.994;14.052;2022-12-16T03:50:55;97338.13;;;-2.76;100.00
65276;BME280;51875;49.994;14.052;2022-12-16T03:52:11;97340.00;;;-2.50;100.00
65276;BME280;51875;49.994;14.052;2022-12-16T03:53:26;97339.09;;;-2.57;100.00
65276;BME280;51875;49.994;14.052;2022-12-16T03:54:42;97337.44;;;-2.50;100.00
65276;BME280;51875;49.994;14.052;2022-12-16T03:55:58;97328.97;;;-2.36;100.00
65276;BME280;51875;49.994;14.052;2022-12-16T03:57:13;97329.81;;;-2.36;100.00
65276;BME280;51875;49.994;14.052;2022-12-16T03:58:29;97329.81;;;-2.33;100.00
65276;BME280;51875;49.994;14.052;2022-12-16T03:59:45;97331.47;;;-2.49;100.00
65276;BME280;51875;49.994;14.052;2022-12-16T04:01:00;97331.44;;;-2.53;100.00
65276;BME280;51875;49.994;14.052;2022-12-16T04:02:16;97327.78;;;-2.85;100.00
65276;BME280;51875;49.994;14.052;2022-12-16T04:03:31;97332.06;;;-2.87;100.00
65276;BME280;51875;49.994;14.052;2022-12-16T04:04:47;97332.84;;;-2.93;100.00
65276;BME280;51875;49.994;14.052;2022-12-16T04:06:03;97334.59;;;-2.90;100.00
65276;BME280;51875;49.994;14.052;2022-12-16T04:07:19;97330.28;;;-2.94;100.00
65276;BME280;51875;49.994;14.052;2022-12-16T04:08:34;97326.13;;;-2.80;100.00
65276;BME280;51875;49.994;14.052;2022-12-16T04:09:51;97320.25;;;-2.62;100.00
65276;BME280;51875;49.994;14.052;2022-12-16T04:11:07;97319.41;;;-2.65;100.00
65276;BME280;51875;49.994;14.052;2022-12-16T04:12:41;97318.50;;;-2.67;100.00
65276;BME280;51875;49.994;14.052;2022-12-16T04:14:15;97325.41;;;-2.63;100.00
65276;BME280;51875;49.994;14.052;2022-12-16T04:15:49;97319.59;;;-2.34;100.00
65276;BME280;51875;49.994;14.052;2022-12-16T04:17:23;97323.75;;;-2.47;100.00
65276;BME280;51875;49.994;14.052;2022-12-16T04:18:58;97316.97;;;-2.41;100.00
65276;BME280;51875;49.994;14.052;2022-12-16T04:20:35;97320.44;;;-2.35;100.00
65276;BME280;51875;49.994;14.052;2022-12-16T04:22:18;97318.69;;;-2.44;100.00
65276;BME280;51875;49.994;14.052;2022-12-16T04:23:54;97313.44;;;-2.60;100.00
65276;BME280;51875;49.994;14.052;2022-12-16T04:25:32;97311.03;;;-2.33;100.00
65276;BME280;51875;49.994;14.052;2022-12-16T04:26:49;97308.56;;;-2.16;100.00
65276;BME280;51875;49.994;14.052;2022-12-16T04:28:24;97313.50;;;-2.47;100.00
65276;BME280;51875;49.994;14.052;2022-12-16T04:29:39;97314.38;;;-2.50;100.00
65276;BME280;51875;49.994;14.052;2022-12-16T04:31:17;97317.75;;;-2.56;100.00
65276;BME280;51875;49.994;14.052;2022-12-16T04:32:33;97318.59;;;-2.58;100.00
65276;BME280;51875;49.994;14.052;2022-12-16T04:34:07;97328.13;;;-2.35;100.00
65276;BME280;51875;49.994;14.052;2022-12-16T04:35:42;97342.56;;;-2.50;100.00
65276;BME280;51875;49.994;14.052;2022-12-16T04:37:16;97350.28;;;-2.44;100.00
65276;BME280;51875;49.994;14.052;2022-12-16T04:38:51;97345.22;;;-2.37;100.00
65276;BME280;51875;49.994;14.052;2022-12-16T04:40:25;97350.16;;;-2.61;100.00
65276;BME280;51875;49.994;14.052;2022-12-16T04:41:59;97346.75;;;-2.60;100.00
65276;BME280;51875;49.994;14.052;2022-12-16T04:43:34;97346.91;;;-2.35;100.00
65276;BME280;51875;49.994;14.052;2022-12-16T04:45:08;97357.19;;;-2.30;100.00
65276;BME280;51875;49.994;14.052;2022-12-16T04:46:42;97361.47;;;-2.26;100.00
65276;BME280;51875;49.994;14.052;2022-12-16T04:48:17;97352.16;;;-2.16;100.00
65276;BME280;51875;49.994;14.052;2022-12-16T04:49:51;97361.59;;;-2.06;100.00
65276;BME280;51875;49.994;14.052;2022-12-16T04:51:26;97340.22;;;-2.03;100.00
65276;BME280;51875;49.994;14.052;2022-12-16T04:53:00;97347.75;;;-2.39;100.00
65276;BME280;51875;49.994;14.052;2022-12-16T04:54:34;97349.59;;;-2.16;100.00
65276;BME280;51875;49.994;14.052;2022-12-16T04:56:08;97339.31;;;-2.11;100.00
65276;BME280;51875;49.994;14.052;2022-12-16T04:57:46;97339.28;;;-2.22;100.00
65276;BME280;51875;49.994;14.052;2022-12-16T04:59:21;97333.28;;;-2.26;100.00
65276;BME280;51875;49.994;14.052;2022-12-16T05:00:55;97340.00;;;-2.50;100.00
65276;BME280;51875;49.994;14.052;2022-12-16T05:02:29;97337.34;;;-2.62;100.00
65276;BME280;51875;49.994;14.052;2022-12-16T05:04:04;97336.50;;;-2.61;100.00
65276;BME280;51875;49.994;14.052;2022-12-16T05:05:38;97344.13;;;-2.67;100.00
65276;BME280;51875;49.994;14.052;2022-12-16T05:07:12;97343.94;;;-2.97;100.00
65276;BME280;51875;49.994;14.052;2022-12-16T05:08:47;97349.28;;;-2.66;100.00
65276;BME280;51875;49.994;14.052;2022-12-16T05:10:21;97351.88;;;-2.61;100.00
65276;BME280;51875;49.994;14.052;2022-12-16T05:11:55;97353.63;;;-2.56;100.00
65276;BME280;51875;49.994;14.052;2022-12-16T05:13:29;97355.28;;;-2.61;100.00
65276;BME280;51875;49.994;14.052;2022-12-16T05:15:04;97355.22;;;-2.68;100.00
65276;BME280;51875;49.994;14.052;2022-12-16T05:16:39;97352.72;;;-2.64;100.00
65276;BME280;51875;49.994;14.052;2022-12-16T05:18:15;97352.00;;;-2.39;100.00
65276;BME280;51875;49.994;14.052;2022-12-16T05:19:49;97345.19;;;-2.36;100.00
65276;BME280;51875;49.994;14.052;2022-12-16T05:21:23;97345.28;;;-2.19;100.00
65276;BME280;51875;49.994;14.052;2022-12-16T05:22:58;97345.41;;;-1.94;100.00
65276;BME280;51875;49.994;14.052;2022-12-16T05:24:32;97342.53;;;-2.51;100.00
65276;BME280;51875;49.994;14.052;2022-12-16T05:26:06;97341.78;;;-2.35;100.00
65276;BME280;51875;49.994;14.052;2022-12-16T05:27:40;97334.03;;;-2.46;100.00
65276;BME280;51875;49.994;14.052;2022-12-16T05:29:15;97334.91;;;-2.44;100.00
65276;BME280;51875;49.994;14.052;2022-12-16T05:30:49;97336.63;;;-2.41;100.00
65276;BME280;51875;49.994;14.052;2022-12-16T05:32:23;97329.03;;;-2.19;100.00
65276;BME280;51875;49.994;14.052;2022-12-16T05:33:58;97333.31;;;-2.20;100.00
65276;BME280;51875;49.994;14.052;2022-12-16T05:35:32;97337.56;;;-2.23;100.00
65276;BME280;51875;49.994;14.052;2022-12-16T05:37:06;97337.41;;;-2.58;100.00
65276;BME280;51875;49.994;14.052;2022-12-16T05:38:40;97340.00;;;-2.50;100.00
65276;BME280;51875;49.994;14.052;2022-12-16T05:40:15;97344.16;;;-2.63;100.00
65276;BME280;51875;49.994;14.052;2022-12-16T05:41:49;97343.31;;;-2.65;100.00
65276;BME280;51875;49.994;14.052;2022-12-16T05:43:23;97341.66;;;-2.57;100.00
65276;BME280;51875;49.994;14.052;2022-12-16T05:44:57;97349.25;;;-2.71;100.00
65276;BME280;51875;49.994;14.052;2022-12-16T05:46:32;97345.75;;;-2.84;100.00
65276;BME280;51875;49.994;14.052;2022-12-16T05:48:06;97342.25;;;-2.95;100.00
65276;BME280;51875;49.994;14.052;2022-12-16T05:49:42;97349.78;;;-3.14;100.00
65276;BME280;51875;49.994;14.052;2022-12-16T05:51:16;97355.88;;;-2.99;100.00
65276;BME280;51875;49.994;14.052;2022-12-16T05:52:52;97356.81;;;-2.89;100.00
65276;BME280;51875;49.994;14.052;2022-12-16T05:54:27;97365.59;;;-2.54;100.00
65276;BME280;51875;49.994;14.052;2022-12-16T05:56:01;97363.22;;;-2.22;100.00
65276;BME280;51875;49.994;14.052;2022-12-16T05:57:36;97363.09;;;-2.41;100.00
65276;BME280;51875;49.994;14.052;2022-12-16T05:59:10;97366.59;;;-2.32;100.00
65276;BME280;51875;49.994;14.052;2022-12-16T06:00:44;97362.41;;;-2.15;100.00
65276;BME280;51875;49.994;14.052;2022-12-16T06:02:18;97366.66;;;-2.18;100.00
65276;BME280;51875;49.994;14.052;2022-12-16T06:03:52;97362.34;;;-2.27;100.00
65276;BME280;51875;49.994;14.052;2022-12-16T06:05:27;97364.16;;;-2.07;100.00
65276;BME280;51875;49.994;14.052;2022-12-16T06:07:01;97354.66;;;-2.25;100.00
65276;BME280;51875;49.994;14.052;2022-12-16T06:08:35;97354.69;;;-2.21;100.00
65276;BME280;51875;49.994;14.052;2022-12-16T06:10:09;97359.00;;;-2.15;100.00
65276;BME280;51875;49.994;14.052;2022-12-16T06:11:44;97361.41;;;-2.38;100.00
65276;BME280;51875;49.994;14.052;2022-12-16T06:13:18;97369.78;;;-2.66;100.00
65276;BME280;51875;49.994;14.052;2022-12-16T06:14:52;97355.50;;;-2.25;100.00
65276;BME280;51875;49.994;14.052;2022-12-16T06:16:27;97367.38;;;-2.39;100.00
65276;BME280;51875;49.994;14.052;2022-12-16T06:18:01;97364.00;;;-2.35;100.00
65276;BME280;51875;49.994;14.052;2022-12-16T06:19:35;97365.00;;;-2.08;100.00
65276;BME280;51875;49.994;14.052;2022-12-16T06:21:11;97361.59;;;-2.03;100.00
65276;BME280;51875;49.994;14.052;2022-12-16T06:22:52;97361.63;;;-1.98;100.00
65276;BME280;51875;49.994;14.052;2022-12-16T06:24:35;97367.63;;;-1.91;100.00
65276;BME280;51875;49.994;14.052;2022-12-16T06:26:10;97371.03;;;-1.97;100.00
65276;BME280;51875;49.994;14.052;2022-12-16T06:27:50;97376.81;;;-2.34;100.00
65276;BME280;51875;49.994;14.052;2022-12-16T06:29:24;97386.03;;;-2.61;100.00
65276;BME280;51875;49.994;14.052;2022-12-16T06:30:58;97383.41;;;-2.72;100.00
65276;BME280;51875;49.994;14.052;2022-12-16T06:32:32;97392.91;;;-2.58;100.00
65276;BME280;51875;49.994;14.052;2022-12-16T06:34:06;97388.75;;;-2.39;100.00
65276;BME280;51875;49.994;14.052;2022-12-16T06:35:41;97388.03;;;-2.18;100.00
65276;BME280;51875;49.994;14.052;2022-12-16T06:37:15;97376.09;;;-2.14;100.00
65276;BME280;51875;49.994;14.052;2022-12-16T06:38:49;97375.19;;;-2.21;100.00
65276;BME280;51875;49.994;14.052;2022-12-16T06:40:23;97378.69;;;-2.06;100.00
65276;BME280;51875;49.994;14.052;2022-12-16T06:41:57;97385.53;;;-2.05;100.00
65276;BME280;51875;49.994;14.052;2022-12-16T06:43:32;97388.13;;;-2.01;100.00
65276;BME280;51875;49.994;14.052;2022-12-16T06:45:06;97388.94;;;-2.11;100.00
65276;BME280;51875;49.994;14.052;2022-12-16T06:46:41;97407.53;;;-2.45;100.00
65276;BME280;51875;49.994;14.052;2022-12-16T06:48:15;97412.72;;;-2.32;100.00
65276;BME280;51875;49.994;14.052;2022-12-16T06:49:49;97410.25;;;-2.18;100.00
65276;BME280;51875;49.994;14.052;2022-12-16T06:51:23;97418.63;;;-2.43;100.00
65276;BME280;51875;49.994;14.052;2022-12-16T06:52:58;97416.06;;;-2.46;100.00
65276;BME280;51875;49.994;14.052;2022-12-16T06:54:32;97419.56;;;-2.33;100.00
65276;BME280;51875;49.994;14.052;2022-12-16T06:56:06;97418.88;;;-2.04;100.00
65276;BME280;51875;49.994;14.052;2022-12-16T06:57:41;97425.75;;;-2.01;100.00
65276;BME280;51875;49.994;14.052;2022-12-16T06:59:15;97427.44;;;-2.06;100.00
65276;BME280;51875;49.994;14.052;2022-12-16T07:00:49;97428.22;;;-2.14;100.00
65276;BME280;51875;49.994;14.052;2022-12-16T07:02:24;97426.59;;;-2.02;100.00
65276;BME280;51875;49.994;14.052;2022-12-16T07:03:58;97436.03;;;-1.93;100.00
65276;BME280;51875;49.994;14.052;2022-12-16T07:05:32;97427.50;;;-1.91;100.00
65276;BME280;51875;49.994;14.052;2022-12-16T07:07:08;97430.03;;;-2.02;100.00
65276;BME280;51875;49.994;14.052;2022-12-16T07:08:42;97427.50;;;-1.94;100.00
65276;BME280;51875;49.994;14.052;2022-12-16T07:10:17;97425.78;;;-1.95;100.00
65276;BME280;51875;49.994;14.052;2022-12-16T07:11:51;97421.53;;;-1.90;100.00
65276;BME280;51875;49.994;14.052;2022-12-16T07:13:25;97422.38;;;-1.91;100.00
65276;BME280;51875;49.994;14.052;2022-12-16T07:14:59;97419.78;;;-1.95;100.00
65276;BME280;51875;49.994;14.052;2022-12-16T07:16:34;97419.81;;;-1.91;100.00
65276;BME280;51875;49.994;14.052;2022-12-16T07:18:08;97421.44;;;-2.04;100.00
65276;BME280;51875;49.994;14.052;2022-12-16T07:19:42;97439.44;;;-1.96;100.00
65276;BME280;51875;49.994;14.052;2022-12-16T07:21:16;97441.09;;;-2.07;100.00
65276;BME280;51875;49.994;14.052;2022-12-16T07:22:50;97450.38;;;-2.27;100.00
65276;BME280;51875;49.994;14.052;2022-12-16T07:24:24;97450.50;;;-2.09;100.00
65276;BME280;51875;49.994;14.052;2022-12-16T07:25:59;97453.22;;;-1.81;100.00
65276;BME280;51875;49.994;14.052;2022-12-16T07:27:33;97449.72;;;-1.91;100.00
65276;BME280;51875;49.994;14.052;2022-12-16T07:29:07;97447.19;;;-1.87;100.00
65276;BME280;51875;49.994;14.052;2022-12-16T07:30:42;97460.03;;;-1.87;100.00
65276;BME280;51875;49.994;14.052;2022-12-16T07:32:17;97456.66;;;-1.78;100.00
65276;BME280;51875;49.994;14.052;2022-12-16T07:33:51;97453.19;;;-1.86;100.00
65276;BME280;51875;49.994;14.052;2022-12-16T07:35:25;97455.00;;;-1.69;100.00
65276;BME280;51875;49.994;14.052;2022-12-16T07:37:00;97462.59;;;-1.85;100.00
65276;BME280;51875;49.994;14.052;2022-12-16T07:38:34;97465.19;;;-1.85;100.00
65276;BME280;51875;49.994;14.052;2022-12-16T07:40:09;97472.81;;;-1.93;100.00
65276;BME280;51875;49.994;14.052;2022-12-16T07:41:43;97473.75;;;-1.81;100.00
65276;BME280;51875;49.994;14.052;2022-12-16T07:43:17;97477.81;;;-2.15;100.00
65276;BME280;51875;49.994;14.052;2022-12-16T07:44:52;97488.25;;;-1.83;100.00
65276;BME280;51875;49.994;14.052;2022-12-16T07:46:27;97487.41;;;-1.84;100.00
65276;BME280;51875;49.994;14.052;2022-12-16T07:48:01;97489.72;;;-2.18;100.00
65276;BME280;51875;49.994;14.052;2022-12-16T07:49:35;97500.06;;;-2.09;100.00